sensor_id;sensor_type;location;lat;lon;timestamp;P1;durP1;ratioP1;P2;durP2;ratioP2
36373;SDS011;22399;51.346;12.372;2024-02-14T15:56:25;5.95;;;1.10;;
36373;SDS011;22399;51.346;12.372;2024-02-14T15:58:54;1.48;;;0.88;;
36373;SDS011;22399;51.346;12.372;2024-02-14T16:01:22;3.72;;;1.17;;
36373;SDS011;22399;51.346;12.372;2024-02-14T16:03:51;5.35;;;1.95;;
36373;SDS011;22399;51.346;12.372;2024-02-14T16:06:19;2.05;;;1.10;;
36373;SDS011;22399;51.346;12.372;2024-02-14T16:08:48;2.50;;;1.27;;
36373;SDS011;22399;51.346;12.372;2024-02-14T16:11:19;1.92;;;1.05;;
36373;SDS011;22399;51.346;12.372;2024-02-14T16:13:48;2.72;;;1.33;;
36373;SDS011;22399;51.346;12.372;2024-02-14T16:16:17;7.07;;;1.60;;
36373;SDS011;22399;51.346;12.372;2024-02-14T16:18:46;3.22;;;1.27;;
36373;SDS011;22399;51.346;12.372;2024-02-14T16:21:15;1.00;;;0.75;;
36373;SDS011;22399;51.346;12.372;2024-02-14T16:23:43;2.08;;;1.00;;
36373;SDS011;22399;51.346;12.372;2024-02-14T16:26:12;1.58;;;0.75;;
36373;SDS011;22399;51.346;12.372;2024-02-14T16:28:42;9.52;;;1.33;;
36373;SDS011;22399;51.346;12.372;2024-02-14T16:31:12;3.40;;;1.02;;
36373;SDS011;22399;51.346;12.372;2024-02-14T16:33:40;9.77;;;1.00;;
36373;SDS011;22399;51.346;12.372;2024-02-14T16:36:10;7.53;;;1.27;;
36373;SDS011;22399;51.346;12.372;2024-02-14T16:38:38;7.18;;;1.45;;
36373;SDS011;22399;51.346;12.372;2024-02-14T16:41:07;5.50;;;1.40;;
36373;SDS011;22399;51.346;12.372;2024-02-14T16:43:36;5.65;;;1.13;;
36373;SDS011;22399;51.346;12.372;2024-02-14T16:46:05;6.22;;;1.33;;
36373;SDS011;22399;51.346;12.372;2024-02-14T16:48:35;1.65;;;0.95;;
36373;SDS011;22399;51.346;12.372;2024-02-14T16:51:04;3.10;;;1.25;;
36373;SDS011;22399;51.346;12.372;2024-02-14T16:53:33;12.23;;;0.98;;
36373;SDS011;22399;51.346;12.372;2024-02-14T16:56:02;1.58;;;1.13;;
36373;SDS011;22399;51.346;12.372;2024-02-14T16:58:31;3.15;;;1.23;;
36373;SDS011;22399;51.346;12.372;2024-02-14T17:00:59;3.47;;;1.27;;
36373;SDS011;22399;51.346;12.372;2024-02-14T17:03:28;3.05;;;1.20;;
36373;SDS011;22399;51.346;12.372;2024-02-14T17:05:58;4.28;;;1.30;;
36373;SDS011;22399;51.346;12.372;2024-02-14T17:08:28;3.40;;;1.58;;
36373;SDS011;22399;51.346;12.372;2024-02-14T17:10:57;2.78;;;1.45;;
36373;SDS011;22399;51.346;12.372;2024-02-14T17:13:27;1.98;;;1.05;;
36373;SDS011;22399;51.346;12.372;2024-02-14T17:15:56;2.10;;;1.10;;
36373;SDS011;22399;51.346;12.372;2024-02-14T17:18:25;3.28;;;1.25;;
36373;SDS011;22399;51.346;12.372;2024-02-14T17:20:55;3.80;;;1.13;;
36373;SDS011;22399;51.346;12.372;2024-02-14T17:23:25;4.90;;;1.67;;
36373;SDS011;22399;51.346;12.372;2024-02-14T17:25:53;3.67;;;1.23;;
36373;SDS011;22399;51.346;12.372;2024-02-14T17:28:22;3.92;;;1.60;;
36373;SDS011;22399;51.346;12.372;2024-02-14T17:30:51;2.92;;;1.42;;
36373;SDS011;22399;51.346;12.372;2024-02-14T17:33:19;5.28;;;1.48;;
36373;SDS011;22399;51.346;12.372;2024-02-14T17:35:47;4.38;;;2.17;;
36373;SDS011;22399;51.346;12.372;2024-02-14T17:38:16;4.80;;;1.95;;
36373;SDS011;22399;51.346;12.372;2024-02-14T17:40:46;3.67;;;1.92;;
36373;SDS011;22399;51.346;12.372;2024-02-14T17:43:14;2.53;;;1.75;;
36373;SDS011;22399;51.346;12.372;2024-02-14T17:45:43;5.65;;;1.85;;
36373;SDS011;22399;51.346;12.372;2024-02-14T17:48:11;5.85;;;1.65;;
36373;SDS011;22399;51.346;12.372;2024-02-14T17:50:40;5.82;;;1.88;;
36373;SDS011;22399;51.346;12.372;2024-02-14T17:53:10;4.60;;;1.63;;
36373;SDS011;22399;51.346;12.372;2024-02-14T17:55:38;3.97;;;2.00;;
36373;SDS011;22399;51.346;12.372;2024-02-14T17:58:08;3.72;;;1.40;;
36373;SDS011;22399;51.346;12.372;2024-02-14T18:00:36;7.82;;;1.80;;
36373;SDS011;22399;51.346;12.372;2024-02-14T18:03:05;4.57;;;1.77;;
36373;SDS011;22399;51.346;12.372;2024-02-14T18:05:34;5.05;;;2.30;;
36373;SDS011;22399;51.346;12.372;2024-02-14T18:08:07;14.70;;;1.90;;
36373;SDS011;22399;51.346;12.372;2024-02-14T18:10:35;3.17;;;1.55;;
36373;SDS011;22399;51.346;12.372;2024-02-14T18:13:04;10.20;;;1.80;;
36373;SDS011;22399;51.346;12.372;2024-02-14T18:15:33;3.80;;;1.35;;
36373;SDS011;22399;51.346;12.372;2024-02-14T18:18:02;5.47;;;1.65;;
36373;SDS011;22399;51.346;12.372;2024-02-14T18:20:31;2.75;;;1.60;;
36373;SDS011;22399;51.346;12.372;2024-02-14T18:23:00;3.58;;;1.98;;
36373;SDS011;22399;51.346;12.372;2024-02-14T18:25:29;4.78;;;2.20;;
36373;SDS011;22399;51.346;12.372;2024-02-14T18:27:58;4.72;;;1.48;;
36373;SDS011;22399;51.346;12.372;2024-02-14T18:30:26;9.60;;;2.15;;
36373;SDS011;22399;51.346;12.372;2024-02-14T18:32:56;4.97;;;1.50;;
36373;SDS011;22399;51.346;12.372;2024-02-14T18:35:25;5.15;;;1.73;;
36373;SDS011;22399;51.346;12.372;2024-02-14T18:37:53;3.35;;;1.45;;
36373;SDS011;22399;51.346;12.372;2024-02-14T18:40:21;2.03;;;0.90;;
36373;SDS011;22399;51.346;12.372;2024-02-14T18:42:49;2.35;;;1.27;;
36373;SDS011;22399;51.346;12.372;2024-02-14T18:45:17;5.00;;;2.00;;
36373;SDS011;22399;51.346;12.372;2024-02-14T18:47:46;2.58;;;1.42;;
36373;SDS011;22399;51.346;12.372;2024-02-14T18:50:16;5.95;;;1.60;;
36373;SDS011;22399;51.346;12.372;2024-02-14T18:52:44;4.00;;;1.80;;
36373;SDS011;22399;51.346;12.372;2024-02-14T18:55:15;9.77;;;1.38;;
36373;SDS011;22399;51.346;12.372;2024-02-14T18:57:44;1.70;;;1.15;;
36373;SDS011;22399;51.346;12.372;2024-02-14T19:00:13;10.10;;;1.65;;
36373;SDS011;22399;51.346;12.372;2024-02-14T19:02:42;6.00;;;1.65;;
36373;SDS011;22399;51.346;12.372;2024-02-14T19:05:10;2.42;;;1.20;;
36373;SDS011;22399;51.346;12.372;2024-02-14T19:07:40;4.28;;;1.90;;
36373;SDS011;22399;51.346;12.372;2024-02-14T19:10:08;3.30;;;1.60;;
36373;SDS011;22399;51.346;12.372;2024-02-14T19:12:37;1.98;;;1.35;;
36373;SDS011;22399;51.346;12.372;2024-02-14T19:15:06;4.72;;;1.80;;
36373;SDS011;22399;51.346;12.372;2024-02-14T19:17:35;6.95;;;1.52;;
36373;SDS011;22399;51.346;12.372;2024-02-14T19:20:05;9.60;;;1.75;;
36373;SDS011;22399;51.346;12.372;2024-02-14T19:22:35;2.35;;;1.35;;
36373;SDS011;22399;51.346;12.372;2024-02-14T19:25:05;6.15;;;1.40;;
36373;SDS011;22399;51.346;12.372;2024-02-14T19:27:34;5.45;;;1.70;;
36373;SDS011;22399;51.346;12.372;2024-02-14T19:30:04;5.00;;;1.25;;
36373;SDS011;22399;51.346;12.372;2024-02-14T19:32:33;8.38;;;1.83;;
36373;SDS011;22399;51.346;12.372;2024-02-14T19:35:06;2.70;;;1.55;;
36373;SDS011;22399;51.346;12.372;2024-02-14T19:37:34;4.35;;;1.10;;
36373;SDS011;22399;51.346;12.372;2024-02-14T19:40:05;3.13;;;1.85;;
36373;SDS011;22399;51.346;12.372;2024-02-14T19:42:34;5.95;;;1.67;;
36373;SDS011;22399;51.346;12.372;2024-02-14T19:45:03;3.92;;;1.27;;
36373;SDS011;22399;51.346;12.372;2024-02-14T19:47:33;2.75;;;1.30;;
36373;SDS011;22399;51.346;12.372;2024-02-14T19:50:02;3.10;;;1.35;;
36373;SDS011;22399;51.346;12.372;2024-02-14T19:52:34;10.68;;;1.50;;
36373;SDS011;22399;51.346;12.372;2024-02-14T19:55:06;4.93;;;1.63;;
36373;SDS011;22399;51.346;12.372;2024-02-14T19:57:36;6.63;;;1.83;;
36373;SDS011;22399;51.346;12.372;2024-02-14T20:00:05;2.38;;;1.40;;
36373;SDS011;22399;51.346;12.372;2024-02-14T20:02:38;2.30;;;0.95;;
36373;SDS011;22399;51.346;12.372;2024-02-14T20:05:09;3.92;;;1.48;;
36373;SDS011;22399;51.346;12.372;2024-02-14T20:07:39;4.07;;;1.15;;
36373;SDS011;22399;51.346;12.372;2024-02-14T20:10:11;4.75;;;2.08;;
36373;SDS011;22399;51.346;12.372;2024-02-14T20:12:39;3.42;;;1.27;;
36373;SDS011;22399;51.346;12.372;2024-02-14T20:15:08;3.33;;;1.60;;
36373;SDS011;22399;51.346;12.372;2024-02-14T20:17:38;2.47;;;0.95;;
36373;SDS011;22399;51.346;12.372;2024-02-14T20:20:07;4.13;;;1.67;;
36373;SDS011;22399;51.346;12.372;2024-02-14T20:22:37;4.38;;;1.35;;
36373;SDS011;22399;51.346;12.372;2024-02-14T20:25:08;7.40;;;1.73;;
36373;SDS011;22399;51.346;12.372;2024-02-14T20:27:39;4.85;;;1.42;;
36373;SDS011;22399;51.346;12.372;2024-02-14T20:30:09;13.50;;;1.75;;
36373;SDS011;22399;51.346;12.372;2024-02-14T20:32:39;4.03;;;1.90;;
36373;SDS011;22399;51.346;12.372;2024-02-14T20:35:10;8.63;;;1.80;;
36373;SDS011;22399;51.346;12.372;2024-02-14T20:37:40;4.22;;;2.03;;
36373;SDS011;22399;51.346;12.372;2024-02-14T20:40:09;3.15;;;1.63;;
36373;SDS011;22399;51.346;12.372;2024-02-14T20:42:41;5.30;;;1.50;;
36373;SDS011;22399;51.346;12.372;2024-02-14T20:45:10;8.70;;;1.88;;
36373;SDS011;22399;51.346;12.372;2024-02-14T20:47:39;5.65;;;1.65;;
36373;SDS011;22399;51.346;12.372;2024-02-14T20:50:09;6.45;;;1.88;;
36373;SDS011;22399;51.346;12.372;2024-02-14T20:52:37;4.85;;;1.73;;
36373;SDS011;22399;51.346;12.372;2024-02-14T20:55:06;2.88;;;1.40;;
36373;SDS011;22399;51.346;12.372;2024-02-14T20:57:35;3.47;;;1.63;;
36373;SDS011;22399;51.346;12.372;2024-02-14T21:00:06;5.25;;;1.67;;
36373;SDS011;22399;51.346;12.372;2024-02-14T21:02:36;3.08;;;1.65;;
36373;SDS011;22399;51.346;12.372;2024-02-14T21:05:05;2.53;;;1.60;;
36373;SDS011;22399;51.346;12.372;2024-02-14T21:07:34;3.95;;;1.95;;
36373;SDS011;22399;51.346;12.372;2024-02-14T21:10:02;4.60;;;1.92;;
36373;SDS011;22399;51.346;12.372;2024-02-14T21:12:31;4.45;;;1.95;;
36373;SDS011;22399;51.346;12.372;2024-02-14T21:14:59;3.28;;;1.67;;
36373;SDS011;22399;51.346;12.372;2024-02-14T21:17:29;3.50;;;1.45;;
36373;SDS011;22399;51.346;12.372;2024-02-14T21:19:57;4.85;;;2.08;;
36373;SDS011;22399;51.346;12.372;2024-02-14T21:22:26;2.40;;;1.58;;
36373;SDS011;22399;51.346;12.372;2024-02-14T21:24:55;4.65;;;2.08;;
36373;SDS011;22399;51.346;12.372;2024-02-14T21:27:23;10.95;;;2.00;;
36373;SDS011;22399;51.346;12.372;2024-02-14T21:29:51;2.70;;;1.60;;
36373;SDS011;22399;51.346;12.372;2024-02-14T21:32:19;4.85;;;1.63;;
36373;SDS011;22399;51.346;12.372;2024-02-14T21:34:49;2.97;;;1.58;;
36373;SDS011;22399;51.346;12.372;2024-02-14T21:37:18;3.67;;;1.90;;
36373;SDS011;22399;51.346;12.372;2024-02-14T21:39:46;4.13;;;2.08;;
36373;SDS011;22399;51.346;12.372;2024-02-14T21:42:14;16.33;;;1.80;;
36373;SDS011;22399;51.346;12.372;2024-02-14T21:44:43;8.05;;;1.42;;
36373;SDS011;22399;51.346;12.372;2024-02-14T21:47:11;2.80;;;1.63;;
36373;SDS011;22399;51.346;12.372;2024-02-14T21:49:41;4.00;;;1.90;;
36373;SDS011;22399;51.346;12.372;2024-02-14T21:52:13;6.38;;;1.95;;
36373;SDS011;22399;51.346;12.372;2024-02-14T21:54:42;2.83;;;1.60;;
36373;SDS011;22399;51.346;12.372;2024-02-14T21:57:11;6.78;;;1.92;;
36373;SDS011;22399;51.346;12.372;2024-02-14T21:59:39;4.53;;;1.73;;
36373;SDS011;22399;51.346;12.372;2024-02-14T22:02:07;4.10;;;1.67;;
36373;SDS011;22399;51.346;12.372;2024-02-14T22:04:36;11.98;;;1.75;;
36373;SDS011;22399;51.346;12.372;2024-02-14T22:07:08;7.45;;;1.65;;
36373;SDS011;22399;51.346;12.372;2024-02-14T22:09:37;8.48;;;2.28;;
36373;SDS011;22399;51.346;12.372;2024-02-14T22:12:12;4.18;;;1.80;;
36373;SDS011;22399;51.346;12.372;2024-02-14T22:14:40;4.18;;;1.75;;
36373;SDS011;22399;51.346;12.372;2024-02-14T22:17:10;5.57;;;2.17;;
36373;SDS011;22399;51.346;12.372;2024-02-14T22:19:41;3.00;;;1.65;;
36373;SDS011;22399;51.346;12.372;2024-02-14T22:22:10;5.03;;;2.00;;
36373;SDS011;22399;51.346;12.372;2024-02-14T22:24:41;3.95;;;2.30;;
36373;SDS011;22399;51.346;12.372;2024-02-14T22:27:10;2.58;;;1.83;;
36373;SDS011;22399;51.346;12.372;2024-02-14T22:29:38;5.75;;;2.05;;
36373;SDS011;22399;51.346;12.372;2024-02-14T22:32:08;2.35;;;1.52;;
36373;SDS011;22399;51.346;12.372;2024-02-14T22:34:36;4.28;;;1.50;;
36373;SDS011;22399;51.346;12.372;2024-02-14T22:37:05;3.63;;;1.77;;
36373;SDS011;22399;51.346;12.372;2024-02-14T22:39:34;4.78;;;1.92;;
36373;SDS011;22399;51.346;12.372;2024-02-14T22:42:04;6.20;;;2.35;;
36373;SDS011;22399;51.346;12.372;2024-02-14T22:44:36;11.95;;;2.13;;
36373;SDS011;22399;51.346;12.372;2024-02-14T22:47:05;5.20;;;2.05;;
36373;SDS011;22399;51.346;12.372;2024-02-14T22:49:35;3.60;;;1.45;;
36373;SDS011;22399;51.346;12.372;2024-02-14T22:52:04;5.70;;;2.15;;
36373;SDS011;22399;51.346;12.372;2024-02-14T22:54:33;6.82;;;2.33;;
36373;SDS011;22399;51.346;12.372;2024-02-14T22:57:03;4.70;;;2.20;;
36373;SDS011;22399;51.346;12.372;2024-02-14T22:59:34;9.80;;;2.67;;
36373;SDS011;22399;51.346;12.372;2024-02-14T23:02:04;9.13;;;2.45;;
36373;SDS011;22399;51.346;12.372;2024-02-14T23:04:33;9.75;;;2.65;;
36373;SDS011;22399;51.346;12.372;2024-02-14T23:07:01;6.75;;;2.30;;
36373;SDS011;22399;51.346;12.372;2024-02-14T23:09:31;3.22;;;1.80;;
36373;SDS011;22399;51.346;12.372;2024-02-14T23:12:00;4.40;;;2.03;;
36373;SDS011;22399;51.346;12.372;2024-02-14T23:14:30;6.05;;;2.47;;
36373;SDS011;22399;51.346;12.372;2024-02-14T23:16:58;4.22;;;2.20;;
36373;SDS011;22399;51.346;12.372;2024-02-14T23:19:27;5.65;;;2.03;;
36373;SDS011;22399;51.346;12.372;2024-02-14T23:21:55;4.90;;;2.25;;
36373;SDS011;22399;51.346;12.372;2024-02-14T23:24:24;8.82;;;2.75;;
36373;SDS011;22399;51.346;12.372;2024-02-14T23:26:53;5.53;;;2.03;;
36373;SDS011;22399;51.346;12.372;2024-02-14T23:29:22;6.97;;;2.45;;
36373;SDS011;22399;51.346;12.372;2024-02-14T23:31:52;8.40;;;2.90;;
36373;SDS011;22399;51.346;12.372;2024-02-14T23:34:20;4.63;;;2.75;;
36373;SDS011;22399;51.346;12.372;2024-02-14T23:36:49;5.03;;;2.13;;
36373;SDS011;22399;51.346;12.372;2024-02-14T23:39:18;5.85;;;2.88;;
36373;SDS011;22399;51.346;12.372;2024-02-14T23:41:47;4.40;;;2.30;;
36373;SDS011;22399;51.346;12.372;2024-02-14T23:44:15;3.47;;;2.17;;
36373;SDS011;22399;51.346;12.372;2024-02-14T23:46:43;3.40;;;2.13;;
36373;SDS011;22399;51.346;12.372;2024-02-14T23:49:14;2.60;;;1.90;;
36373;SDS011;22399;51.346;12.372;2024-02-14T23:51:43;4.32;;;1.90;;
36373;SDS011;22399;51.346;12.372;2024-02-14T23:54:12;2.53;;;1.67;;
36373;SDS011;22399;51.346;12.372;2024-02-14T23:56:44;4.10;;;2.28;;
36373;SDS011;22399;51.346;12.372;2024-02-14T23:59:13;4.97;;;2.50;;
